createdAt,value
2023-02-16T00:00:22.834Z,8.73
2023-02-16T00:00:55.079Z,8.40
2023-02-16T00:01:32.479Z,8.40
2023-02-16T00:02:04.768Z,8.00
2023-02-16T00:02:37.084Z,9.40
2023-02-16T00:03:11.707Z,9.00
2023-02-16T00:03:46.976Z,8.57
2023-02-16T00:04:21.572Z,9.00
2023-02-16T00:04:53.912Z,9.00
2023-02-16T00:05:30.944Z,8.53
2023-02-16T00:06:03.189Z,9.33
2023-02-16T00:06:38.230Z,10.10
2023-02-16T00:07:10.456Z,9.13
2023-02-16T00:07:42.680Z,9.57
2023-02-16T00:08:15.244Z,10.10
2023-02-16T00:08:51.780Z,12.70
2023-02-16T00:09:24.751Z,10.87
2023-02-16T00:09:56.996Z,11.37
2023-02-16T00:10:35.207Z,11.30
2023-02-16T00:11:29.203Z,11.97
2023-02-16T00:12:21.249Z,12.00
2023-02-16T00:13:08.719Z,9.97
2023-02-16T00:13:48.172Z,11.17
2023-02-16T00:14:22.821Z,11.47
2023-02-16T00:14:57.669Z,10.47
2023-02-16T00:15:30.197Z,11.93
2023-02-16T00:16:02.496Z,11.37
2023-02-16T00:16:37.622Z,10.43
2023-02-16T00:17:11.845Z,9.20
2023-02-16T00:17:44.077Z,11.30
2023-02-16T00:18:21.907Z,10.03
2023-02-16T00:18:54.329Z,10.23
2023-02-16T00:19:31.267Z,8.90
2023-02-16T00:20:06.796Z,10.30
2023-02-16T00:20:39.052Z,9.43
2023-02-16T00:21:11.520Z,9.40
2023-02-16T00:21:46.436Z,8.33
2023-02-16T00:22:18.649Z,8.80
2023-02-16T00:22:50.900Z,8.80
2023-02-16T00:23:23.115Z,9.57
2023-02-16T00:23:57.963Z,8.20
2023-02-16T00:24:31.293Z,8.43
2023-02-16T00:25:03.602Z,8.00
2023-02-16T00:25:38.973Z,7.70
2023-02-16T00:26:15.228Z,8.30
2023-02-16T00:26:51.610Z,8.07
2023-02-16T00:27:26.518Z,7.63
2023-02-16T00:27:58.757Z,9.23
2023-02-16T00:28:33.677Z,9.07
2023-02-16T00:29:05.939Z,9.50
2023-02-16T00:29:38.195Z,9.00
2023-02-16T00:30:18.613Z,8.27
2023-02-16T00:30:54.530Z,7.90
2023-02-16T00:31:31.040Z,8.10
2023-02-16T00:32:05.240Z,8.73
2023-02-16T00:32:37.545Z,8.37
2023-02-16T00:33:17.381Z,8.60
2023-02-16T00:33:50.231Z,7.90
2023-02-16T00:34:30.870Z,8.10
2023-02-16T00:35:03.142Z,8.17
2023-02-16T00:35:35.439Z,7.77
2023-02-16T00:36:11.017Z,8.20
2023-02-16T00:36:43.258Z,8.47
2023-02-16T00:37:18.092Z,7.53
2023-02-16T00:37:50.355Z,7.97
2023-02-16T00:38:22.632Z,8.43
2023-02-16T00:38:57.485Z,8.67
2023-02-16T00:39:30.291Z,7.53
2023-02-16T00:40:02.560Z,7.60
2023-02-16T00:40:35.001Z,8.47
2023-02-16T00:41:32.978Z,8.23
2023-02-16T00:42:06.821Z,7.73
2023-02-16T00:42:43.236Z,7.57
2023-02-16T00:43:27.930Z,8.60
2023-02-16T00:44:00.183Z,7.93
2023-02-16T00:44:34.878Z,8.50
2023-02-16T00:45:20.125Z,8.30
2023-02-16T00:45:52.567Z,7.57
2023-02-16T00:46:24.987Z,9.33
2023-02-16T00:47:00.051Z,8.90
2023-02-16T00:47:37.469Z,9.23
2023-02-16T00:48:09.758Z,8.40
2023-02-16T00:48:45.375Z,8.50
2023-02-16T00:49:19.300Z,8.43
2023-02-16T00:49:54.916Z,8.67
2023-02-16T00:50:31.736Z,8.93
2023-02-16T00:51:13.772Z,9.17
2023-02-16T00:51:55.541Z,9.00
2023-02-16T00:52:33.860Z,9.47
2023-02-16T00:53:06.327Z,9.37
2023-02-16T00:53:41.176Z,8.83
2023-02-16T00:54:13.587Z,9.00
2023-02-16T00:54:45.825Z,7.73
2023-02-16T00:55:22.492Z,9.00
2023-02-16T00:55:55.301Z,8.10
2023-02-16T00:56:27.641Z,7.97
2023-02-16T00:57:02.486Z,8.37
2023-02-16T00:57:36.854Z,8.27
2023-02-16T00:58:15.256Z,8.90
2023-02-16T00:58:51.041Z,8.30
2023-02-16T00:59:23.880Z,8.87
2023-02-16T00:59:59.332Z,8.27
2023-02-16T01:00:37.596Z,8.30
2023-02-16T01:01:13.370Z,8.60
2023-02-16T01:01:45.802Z,7.90
2023-02-16T01:02:21.163Z,8.30
2023-02-16T01:02:59.105Z,8.87
2023-02-16T01:03:31.500Z,9.40
2023-02-16T01:04:09.638Z,10.73
2023-02-16T01:04:42.092Z,9.50
2023-02-16T01:05:14.516Z,8.53
2023-02-16T01:05:50.025Z,8.60
2023-02-16T01:06:37.269Z,8.53
2023-02-16T01:07:27.027Z,11.20
2023-02-16T01:08:14.276Z,8.90
2023-02-16T01:09:06.936Z,9.27
2023-02-16T01:09:54.180Z,9.83
2023-02-16T01:10:42.200Z,9.60
2023-02-16T01:11:17.474Z,9.53
2023-02-16T01:11:49.718Z,9.20
2023-02-16T01:12:22.282Z,9.03
2023-02-16T01:12:57.132Z,9.67
2023-02-16T01:13:34.216Z,9.40
2023-02-16T01:14:11.803Z,9.53
2023-02-16T01:14:49.147Z,9.67
2023-02-16T01:15:23.401Z,9.33
2023-02-16T01:15:57.220Z,8.43
2023-02-16T01:16:37.282Z,9.77
2023-02-16T01:17:13.289Z,9.10
2023-02-16T01:17:45.516Z,8.87
2023-02-16T01:18:18.776Z,10.20
2023-02-16T01:18:54.262Z,8.93
2023-02-16T01:19:26.720Z,8.40
2023-02-16T01:19:58.992Z,8.80
2023-02-16T01:20:35.429Z,9.27
2023-02-16T01:21:07.709Z,8.67
2023-02-16T01:21:40.192Z,8.43
2023-02-16T01:22:12.517Z,8.50
2023-02-16T01:22:47.528Z,8.13
2023-02-16T01:23:19.861Z,8.30
2023-02-16T01:23:52.088Z,8.90
2023-02-16T01:24:27.515Z,8.07
2023-02-16T01:24:59.745Z,8.10
2023-02-16T01:25:32.070Z,8.53
2023-02-16T01:26:04.963Z,8.50
2023-02-16T01:26:42.276Z,8.17
2023-02-16T01:27:14.594Z,8.50
2023-02-16T01:27:50.510Z,8.47
2023-02-16T01:28:27.115Z,8.70
2023-02-16T01:29:02.186Z,7.73
2023-02-16T01:29:34.477Z,8.63
2023-02-16T01:30:13.990Z,8.40
2023-02-16T01:30:46.411Z,8.07
2023-02-16T01:31:19.091Z,9.47
2023-02-16T01:31:54.087Z,8.23
2023-02-16T01:32:26.431Z,7.73
2023-02-16T01:32:58.704Z,8.43
2023-02-16T01:33:33.661Z,8.87
2023-02-16T01:34:06.009Z,8.00
2023-02-16T01:34:38.930Z,7.73
2023-02-16T01:35:14.547Z,7.37
2023-02-16T01:35:47.040Z,8.27
2023-02-16T01:36:23.695Z,8.30
2023-02-16T01:36:58.564Z,7.80
2023-02-16T01:37:30.905Z,8.20
2023-02-16T01:38:03.707Z,8.33
2023-02-16T01:38:38.648Z,7.70
2023-02-16T01:39:12.553Z,7.67
2023-02-16T01:39:45.100Z,7.90
2023-02-16T01:40:41.382Z,8.57
2023-02-16T01:41:22.738Z,8.77
2023-02-16T01:42:02.628Z,8.07
2023-02-16T01:42:40.201Z,7.80
2023-02-16T01:43:18.868Z,8.80
2023-02-16T01:43:53.308Z,8.27
2023-02-16T01:44:32.928Z,8.17
2023-02-16T01:45:09.943Z,7.93
2023-02-16T01:45:43.807Z,8.27
2023-02-16T01:46:22.416Z,8.00
2023-02-16T01:46:59.489Z,8.63
2023-02-16T01:47:38.183Z,8.03
2023-02-16T01:48:22.068Z,8.70
2023-02-16T01:48:54.391Z,7.77
2023-02-16T01:49:27.719Z,8.10
2023-02-16T01:50:04.234Z,7.87
2023-02-16T01:50:43.524Z,7.97
2023-02-16T01:51:22.624Z,7.90
2023-02-16T01:52:00.630Z,7.13
2023-02-16T01:52:35.284Z,7.83
2023-02-16T01:53:14.765Z,7.77
2023-02-16T01:53:53.104Z,8.60
2023-02-16T01:54:36.679Z,7.50
2023-02-16T01:55:15.850Z,7.37
2023-02-16T01:55:52.872Z,8.40
2023-02-16T01:56:30.978Z,7.53
2023-02-16T01:57:09.293Z,7.03
2023-02-16T01:57:46.964Z,7.50
2023-02-16T01:58:26.216Z,8.37
2023-02-16T01:59:05.027Z,7.20
2023-02-16T02:00:04.804Z,6.80
2023-02-16T02:01:18.433Z,7.87
2023-02-16T02:01:53.706Z,7.30
2023-02-16T02:02:26.986Z,7.37
2023-02-16T02:03:16.388Z,7.77
2023-02-16T02:04:03.680Z,6.27
2023-02-16T02:04:54.224Z,6.93
2023-02-16T02:05:40.623Z,6.53
2023-02-16T02:06:14.993Z,6.83
2023-02-16T02:06:47.641Z,6.70
2023-02-16T02:07:26.097Z,7.33
2023-02-16T02:08:03.772Z,6.90
2023-02-16T02:08:40.707Z,5.57
2023-02-16T02:09:18.885Z,7.00
2023-02-16T02:10:00.739Z,7.37
2023-02-16T02:10:40.041Z,7.73
2023-02-16T02:11:19.981Z,7.03
2023-02-16T02:12:06.443Z,6.43
2023-02-16T02:12:45.424Z,7.20
2023-02-16T02:13:24.713Z,6.47
2023-02-16T02:14:01.399Z,6.73
2023-02-16T02:14:38.016Z,5.80
2023-02-16T02:15:16.660Z,6.57
2023-02-16T02:15:49.942Z,7.13
2023-02-16T02:16:24.340Z,6.80
2023-02-16T02:17:01.424Z,6.80
2023-02-16T02:17:37.457Z,6.83
2023-02-16T02:18:12.900Z,6.77
2023-02-16T02:18:45.188Z,6.10
2023-02-16T02:19:17.658Z,7.23
2023-02-16T02:20:00.399Z,7.87
2023-02-16T02:21:01.704Z,7.63
2023-02-16T02:22:09.654Z,6.70
2023-02-16T02:23:32.370Z,7.32
2023-02-16T02:24:31.390Z,6.63
2023-02-16T02:25:25.717Z,6.77
2023-02-16T02:26:43.170Z,7.30
2023-02-16T02:27:24.095Z,7.40
2023-02-16T02:28:01.274Z,6.80
2023-02-16T02:28:37.657Z,6.27
2023-02-16T02:29:28.560Z,6.20
2023-02-16T02:30:20.281Z,7.13
2023-02-16T02:30:58.385Z,6.77
2023-02-16T02:31:41.923Z,6.87
2023-02-16T02:32:21.134Z,6.43
2023-02-16T02:33:06.751Z,6.30
2023-02-16T02:33:48.982Z,6.40
2023-02-16T02:34:25.537Z,6.37
2023-02-16T02:35:21.750Z,6.70
2023-02-16T02:36:01.165Z,6.80
2023-02-16T02:36:37.667Z,6.30
2023-02-16T02:37:14.696Z,6.23
2023-02-16T02:37:53.375Z,6.13
2023-02-16T02:38:35.152Z,6.87
2023-02-16T02:39:18.590Z,6.40
2023-02-16T02:39:57.552Z,6.33
2023-02-16T02:40:41.438Z,6.80
2023-02-16T02:41:20.192Z,6.17
2023-02-16T02:42:05.301Z,6.93
2023-02-16T02:42:55.588Z,7.30
2023-02-16T02:43:32.262Z,6.43
2023-02-16T02:44:05.920Z,6.73
2023-02-16T02:44:47.654Z,7.20
2023-02-16T02:45:23.987Z,6.87
2023-02-16T02:46:00.610Z,7.20
2023-02-16T02:46:35.404Z,6.73
2023-02-16T02:47:09.040Z,7.00
2023-02-16T02:47:45.345Z,6.27
2023-02-16T02:48:18.778Z,6.97
2023-02-16T02:48:51.429Z,6.60
2023-02-16T02:49:26.424Z,6.87
2023-02-16T02:49:58.668Z,6.77
2023-02-16T02:51:05.052Z,6.77
2023-02-16T02:51:41.144Z,6.63
2023-02-16T02:52:16.231Z,6.90
2023-02-16T02:52:48.602Z,6.93
2023-02-16T02:53:21.884Z,6.00
2023-02-16T02:54:11.550Z,6.17
2023-02-16T02:54:59.802Z,6.60
2023-02-16T02:55:47.600Z,6.30
2023-02-16T02:56:40.435Z,6.43
2023-02-16T02:57:31.767Z,7.27
2023-02-16T02:58:22.189Z,6.73
2023-02-16T02:59:12.414Z,6.40
2023-02-16T03:00:03.060Z,5.87
2023-02-16T03:00:47.934Z,6.60
2023-02-16T03:01:21.154Z,6.13
2023-02-16T03:01:57.674Z,6.83
2023-02-16T03:02:34.350Z,6.40
2023-02-16T03:03:09.455Z,6.30
2023-02-16T03:03:45.789Z,6.27
2023-02-16T03:04:23.727Z,6.93
2023-02-16T03:04:56.595Z,6.60
2023-02-16T03:05:30.039Z,6.63
2023-02-16T03:06:06.753Z,7.10
2023-02-16T03:06:41.115Z,6.60
2023-02-16T03:07:13.735Z,6.23
2023-02-16T03:07:47.193Z,5.53
2023-02-16T03:08:24.519Z,6.30
2023-02-16T03:09:01.312Z,7.30
2023-02-16T03:09:33.620Z,6.85
2023-02-16T03:10:21.907Z,6.70
2023-02-16T03:11:17.460Z,7.50
2023-02-16T03:12:05.812Z,6.13
2023-02-16T03:12:49.502Z,6.57
2023-02-16T03:13:26.345Z,7.17
2023-02-16T03:13:59.943Z,5.80
2023-02-16T03:14:37.049Z,6.63
2023-02-16T03:15:09.834Z,7.07
2023-02-16T03:15:43.130Z,6.53
2023-02-16T03:16:21.774Z,6.30
2023-02-16T03:17:10.826Z,6.10
2023-02-16T03:17:58.157Z,7.43
2023-02-16T03:18:46.206Z,6.97
2023-02-16T03:19:34.389Z,6.33
2023-02-16T03:20:24.540Z,6.67
2023-02-16T03:21:12.324Z,6.93
2023-02-16T03:21:59.728Z,7.90
2023-02-16T03:22:47.856Z,7.90
2023-02-16T03:23:35.103Z,8.07
2023-02-16T03:24:24.836Z,8.50
2023-02-16T03:25:12.061Z,8.47
2023-02-16T03:25:59.561Z,8.17
2023-02-16T03:26:47.787Z,8.30
2023-02-16T03:27:38.027Z,8.67
2023-02-16T03:28:26.209Z,8.13
2023-02-16T03:29:22.598Z,8.30
2023-02-16T03:29:55.785Z,9.03
2023-02-16T03:30:31.120Z,8.40
2023-02-16T03:31:04.391Z,8.53
2023-02-16T03:31:39.096Z,8.63
2023-02-16T03:32:14.117Z,8.70
2023-02-16T03:32:47.017Z,9.27
2023-02-16T03:33:19.596Z,8.13
2023-02-16T03:33:55.004Z,8.93
2023-02-16T03:34:31.265Z,7.83
2023-02-16T03:35:03.707Z,8.93
2023-02-16T03:35:36.386Z,8.30
2023-02-16T03:36:09.059Z,8.50
2023-02-16T03:36:46.713Z,8.03
2023-02-16T03:37:19.062Z,8.40
2023-02-16T03:37:51.369Z,7.60
2023-02-16T03:38:26.279Z,8.00
2023-02-16T03:38:59.032Z,8.20
2023-02-16T03:39:31.927Z,8.57
2023-02-16T03:40:21.576Z,7.90
2023-02-16T03:40:57.847Z,7.93
2023-02-16T03:41:32.967Z,7.87
2023-02-16T03:42:05.577Z,8.30
2023-02-16T03:42:40.458Z,8.00
2023-02-16T03:43:12.720Z,8.03
2023-02-16T03:43:44.974Z,8.57
2023-02-16T03:44:22.511Z,8.17
2023-02-16T03:44:54.768Z,8.43
2023-02-16T03:45:27.117Z,8.10
2023-02-16T03:46:02.093Z,8.77
2023-02-16T03:46:34.684Z,8.03
2023-02-16T03:47:11.036Z,8.47
2023-02-16T03:47:45.911Z,8.13
2023-02-16T03:48:18.450Z,7.93
2023-02-16T03:48:50.695Z,7.50
2023-02-16T03:49:25.556Z,7.27
2023-02-16T03:49:57.788Z,7.20
2023-02-16T03:50:30.368Z,7.20
2023-02-16T03:51:05.497Z,7.00
2023-02-16T03:51:38.135Z,7.50
2023-02-16T03:52:10.626Z,7.70
2023-02-16T03:52:42.886Z,7.10
2023-02-16T03:53:19.199Z,6.93
2023-02-16T03:53:51.472Z,7.57
2023-02-16T03:54:23.706Z,7.30
2023-02-16T03:54:58.555Z,7.20
2023-02-16T03:55:30.781Z,6.90
2023-02-16T03:56:03.021Z,6.63
2023-02-16T03:56:37.851Z,6.43
2023-02-16T03:57:10.078Z,6.70
2023-02-16T03:57:42.352Z,6.50
2023-02-16T03:58:19.727Z,6.50
2023-02-16T03:58:51.991Z,6.38
2023-02-16T03:59:27.143Z,6.70
2023-02-16T03:59:59.513Z,6.70
2023-02-16T04:00:34.983Z,7.30
2023-02-16T04:01:07.407Z,6.43
2023-02-16T04:01:39.679Z,6.80
2023-02-16T04:02:14.567Z,6.07
2023-02-16T04:02:47.186Z,6.80
2023-02-16T04:03:19.612Z,6.47
2023-02-16T04:03:54.623Z,6.20
2023-02-16T04:04:27.103Z,6.20
2023-02-16T04:04:59.452Z,5.67
2023-02-16T04:05:34.444Z,5.80
2023-02-16T04:06:07.473Z,6.27
2023-02-16T04:06:39.703Z,6.27
2023-02-16T04:07:14.614Z,5.80
2023-02-16T04:07:46.877Z,6.18
2023-02-16T04:08:19.126Z,5.73
2023-02-16T04:08:54.821Z,6.23
2023-02-16T04:09:27.089Z,6.10
2023-02-16T04:09:59.326Z,5.80
2023-02-16T04:10:31.566Z,6.78
2023-02-16T04:11:27.268Z,6.40
2023-02-16T04:12:14.545Z,6.00
2023-02-16T04:12:47.005Z,6.33
2023-02-16T04:13:19.231Z,6.40
2023-02-16T04:13:51.490Z,6.17
2023-02-16T04:14:26.368Z,5.90
2023-02-16T04:15:01.253Z,5.67
2023-02-16T04:15:33.516Z,5.87
2023-02-16T04:16:06.104Z,5.17
2023-02-16T04:16:40.999Z,5.70
2023-02-16T04:17:13.289Z,5.97
2023-02-16T04:17:46.132Z,5.53
2023-02-16T04:18:20.977Z,5.70
2023-02-16T04:18:53.208Z,6.00
2023-02-16T04:19:25.469Z,5.33
2023-02-16T04:20:00.304Z,5.43
2023-02-16T04:20:34.236Z,5.43
2023-02-16T04:21:06.655Z,6.27
2023-02-16T04:21:43.037Z,5.77
2023-02-16T04:22:15.433Z,6.00
2023-02-16T04:22:48.084Z,5.67
2023-02-16T04:23:22.914Z,6.30
2023-02-16T04:23:55.190Z,6.13
2023-02-16T04:24:27.519Z,6.00
2023-02-16T04:25:02.388Z,5.90
2023-02-16T04:25:34.985Z,5.73
2023-02-16T04:26:07.251Z,6.40
2023-02-16T04:26:42.116Z,5.53
2023-02-16T04:27:14.369Z,6.35
2023-02-16T04:27:47.496Z,5.53
2023-02-16T04:28:23.463Z,5.90
2023-02-16T04:28:55.696Z,5.83
2023-02-16T04:29:31.324Z,6.13
2023-02-16T04:30:07.489Z,6.20
2023-02-16T04:30:39.899Z,5.20
2023-02-16T04:31:12.329Z,6.40
2023-02-16T04:31:47.408Z,5.83
2023-02-16T04:32:19.756Z,6.13
2023-02-16T04:32:52.187Z,5.50
2023-02-16T04:33:27.022Z,5.50
2023-02-16T04:33:59.347Z,5.93
2023-02-16T04:34:31.579Z,5.60
2023-02-16T04:35:06.756Z,5.80
2023-02-16T04:35:39.037Z,5.63
2023-02-16T04:36:11.276Z,5.40
2023-02-16T04:36:46.120Z,5.65
2023-02-16T04:37:18.432Z,5.50
2023-02-16T04:37:50.751Z,6.30
2023-02-16T04:38:26.224Z,5.80
2023-02-16T04:38:58.455Z,5.45
2023-02-16T04:39:30.694Z,6.20
2023-02-16T04:40:06.325Z,6.40
2023-02-16T04:40:38.581Z,5.83
2023-02-16T04:41:10.869Z,5.60
2023-02-16T04:41:45.700Z,6.23
2023-02-16T04:42:17.985Z,6.10
2023-02-16T04:42:52.825Z,5.43
2023-02-16T04:43:25.055Z,5.77
2023-02-16T04:43:57.336Z,5.80
2023-02-16T04:44:34.925Z,5.75
2023-02-16T04:45:08.627Z,5.22
2023-02-16T04:45:40.985Z,6.10
2023-02-16T04:46:15.868Z,6.32
2023-02-16T04:46:48.150Z,6.95
2023-02-16T04:47:20.423Z,6.13
2023-02-16T04:47:55.264Z,7.05
2023-02-16T04:48:27.550Z,7.40
2023-02-16T04:48:59.875Z,7.63
2023-02-16T04:49:34.775Z,7.55
2023-02-16T04:50:08.436Z,7.47
2023-02-16T04:50:40.672Z,6.87
2023-02-16T04:51:15.622Z,7.13
2023-02-16T04:51:47.978Z,6.80
2023-02-16T04:52:20.602Z,6.80
2023-02-16T04:52:55.475Z,6.90
2023-02-16T04:53:27.808Z,6.93
2023-02-16T04:54:00.041Z,6.70
2023-02-16T04:54:35.493Z,7.10
2023-02-16T04:55:10.949Z,7.13
2023-02-16T04:55:49.207Z,6.50
2023-02-16T04:56:21.566Z,7.60
2023-02-16T04:56:53.844Z,7.47
2023-02-16T04:57:28.785Z,7.33
2023-02-16T04:58:01.116Z,6.77
2023-02-16T04:58:33.386Z,7.47
2023-02-16T04:59:08.676Z,7.07
2023-02-16T04:59:43.605Z,6.23
2023-02-16T05:00:16.423Z,6.87
2023-02-16T05:00:51.289Z,6.80
2023-02-16T05:01:25.745Z,7.30
2023-02-16T05:02:00.640Z,6.53
2023-02-16T05:02:33.116Z,7.20
2023-02-16T05:03:05.382Z,6.67
2023-02-16T05:03:40.228Z,6.93
2023-02-16T05:04:12.496Z,7.20
2023-02-16T05:04:44.843Z,7.23
2023-02-16T05:05:19.942Z,7.77
2023-02-16T05:05:52.228Z,7.30
2023-02-16T05:06:24.471Z,7.37
2023-02-16T05:06:59.312Z,7.23
2023-02-16T05:07:31.615Z,7.53
2023-02-16T05:08:07.001Z,7.07
2023-02-16T05:08:39.329Z,6.90
2023-02-16T05:09:11.865Z,7.47
2023-02-16T05:09:46.732Z,7.60
2023-02-16T05:10:19.105Z,7.10
2023-02-16T05:11:13.952Z,7.67
2023-02-16T05:12:01.192Z,6.82
2023-02-16T05:12:48.460Z,6.43
2023-02-16T05:13:38.477Z,6.70
2023-02-16T05:14:36.082Z,7.70
2023-02-16T05:15:10.977Z,7.10
2023-02-16T05:15:45.932Z,6.73
2023-02-16T05:16:20.644Z,7.23
2023-02-16T05:16:54.235Z,6.97
2023-02-16T05:17:29.981Z,6.07
2023-02-16T05:18:02.219Z,6.10
2023-02-16T05:18:34.464Z,6.13
2023-02-16T05:19:09.316Z,6.18
2023-02-16T05:19:42.699Z,6.18
2023-02-16T05:20:17.900Z,6.00
2023-02-16T05:21:16.818Z,5.87
2023-02-16T05:21:49.146Z,6.97
2023-02-16T05:22:21.600Z,6.65
2023-02-16T05:22:56.490Z,6.30
2023-02-16T05:23:28.737Z,6.20
2023-02-16T05:24:02.894Z,6.53
2023-02-16T05:24:37.752Z,6.88
2023-02-16T05:25:10.022Z,5.50
2023-02-16T05:25:42.265Z,6.28
2023-02-16T05:26:17.149Z,6.00
2023-02-16T05:26:49.431Z,5.90
2023-02-16T05:27:24.028Z,6.07
2023-02-16T05:28:00.226Z,6.70
2023-02-16T05:28:32.575Z,6.25
2023-02-16T05:29:05.327Z,5.90
2023-02-16T05:29:40.191Z,6.20
2023-02-16T05:30:16.123Z,6.30
2023-02-16T05:30:48.554Z,6.30
2023-02-16T05:31:24.499Z,6.80
2023-02-16T05:31:57.228Z,6.57
2023-02-16T05:32:32.224Z,6.68
2023-02-16T05:33:04.468Z,6.83
2023-02-16T05:33:36.711Z,7.57
2023-02-16T05:34:11.543Z,6.80
2023-02-16T05:34:45.635Z,6.10
2023-02-16T05:35:20.643Z,6.20
2023-02-16T05:35:52.900Z,7.03
2023-02-16T05:36:25.519Z,7.00
2023-02-16T05:37:00.587Z,7.73
2023-02-16T05:37:32.856Z,7.10
2023-02-16T05:38:05.108Z,7.67
2023-02-16T05:38:40.382Z,7.40
2023-02-16T05:39:12.652Z,6.90
2023-02-16T05:39:47.786Z,6.87
2023-02-16T05:40:20.547Z,7.23
2023-02-16T05:40:52.827Z,6.95
2023-02-16T05:41:25.069Z,7.50
2023-02-16T05:42:00.231Z,6.67
2023-02-16T05:42:32.463Z,7.20
2023-02-16T05:43:04.704Z,6.90
2023-02-16T05:43:37.038Z,6.63
2023-02-16T05:44:12.198Z,7.67
2023-02-16T05:44:44.424Z,7.40
2023-02-16T05:45:19.418Z,8.60
2023-02-16T05:45:54.472Z,8.40
2023-02-16T05:46:28.530Z,8.30
2023-02-16T05:47:00.962Z,7.10
2023-02-16T05:47:35.824Z,7.33
2023-02-16T05:48:08.052Z,7.90
2023-02-16T05:48:40.305Z,7.27
2023-02-16T05:49:16.115Z,7.73
2023-02-16T05:49:48.364Z,7.13
2023-02-16T05:50:20.592Z,7.50
2023-02-16T05:50:57.491Z,8.13
2023-02-16T05:51:30.075Z,7.17
2023-02-16T05:52:02.416Z,7.10
2023-02-16T05:52:37.241Z,7.10
2023-02-16T05:53:09.716Z,6.70
2023-02-16T05:53:42.255Z,7.40
2023-02-16T05:54:19.851Z,7.30
2023-02-16T05:54:52.102Z,7.43
2023-02-16T05:55:24.365Z,7.43
2023-02-16T05:55:59.181Z,6.37
2023-02-16T05:56:31.939Z,6.57
2023-02-16T05:57:07.200Z,7.10
2023-02-16T05:57:39.453Z,7.07
2023-02-16T05:58:11.721Z,6.67
2023-02-16T05:58:46.567Z,7.27
2023-02-16T05:59:19.148Z,6.60
2023-02-16T05:59:51.409Z,6.60
2023-02-16T06:00:33.533Z,6.90
2023-02-16T06:01:06.126Z,6.17
2023-02-16T06:01:40.944Z,6.70
2023-02-16T06:02:15.801Z,8.03
2023-02-16T06:02:48.089Z,7.10
2023-02-16T06:03:20.394Z,6.50
2023-02-16T06:03:55.330Z,7.33
2023-02-16T06:04:28.761Z,7.50
2023-02-16T06:05:03.626Z,7.40
2023-02-16T06:05:35.888Z,6.90
2023-02-16T06:06:09.189Z,7.00
2023-02-16T06:06:44.184Z,7.03
2023-02-16T06:07:16.414Z,6.82
2023-02-16T06:07:48.639Z,7.07
2023-02-16T06:08:23.488Z,7.60
2023-02-16T06:08:55.747Z,6.37
2023-02-16T06:09:31.424Z,7.70
2023-02-16T06:10:04.547Z,7.40
2023-02-16T06:10:36.930Z,7.80
2023-02-16T06:11:33.115Z,6.90
2023-02-16T06:12:05.962Z,7.03
2023-02-16T06:12:41.392Z,6.97
2023-02-16T06:13:14.576Z,6.83
2023-02-16T06:13:50.287Z,6.20
2023-02-16T06:14:25.243Z,7.10
2023-02-16T06:14:57.457Z,6.47
2023-02-16T06:15:32.297Z,6.50
2023-02-16T06:16:07.798Z,6.85
2023-02-16T06:16:41.520Z,7.50
2023-02-16T06:17:16.433Z,7.43
2023-02-16T06:17:48.690Z,6.97
2023-02-16T06:18:21.220Z,7.60
2023-02-16T06:18:53.901Z,6.22
2023-02-16T06:19:28.787Z,7.50
2023-02-16T06:20:01.028Z,7.43
2023-02-16T06:20:33.390Z,6.65
2023-02-16T06:21:08.723Z,7.25
2023-02-16T06:21:41.266Z,7.00
2023-02-16T06:22:13.517Z,6.70
2023-02-16T06:22:48.343Z,6.43
2023-02-16T06:23:20.559Z,6.77
2023-02-16T06:23:53.421Z,6.30
2023-02-16T06:24:28.867Z,6.38
2023-02-16T06:25:01.111Z,6.20
2023-02-16T06:25:33.561Z,7.10
2023-02-16T06:26:08.460Z,7.00
2023-02-16T06:26:41.132Z,6.28
2023-02-16T06:27:15.957Z,6.45
2023-02-16T06:27:48.240Z,6.25
2023-02-16T06:28:20.517Z,6.03
2023-02-16T06:28:55.752Z,6.50
2023-02-16T06:29:27.969Z,6.70
2023-02-16T06:30:03.322Z,6.77
2023-02-16T06:30:38.376Z,6.53
2023-02-16T06:31:10.784Z,7.10
2023-02-16T06:31:45.904Z,6.87
2023-02-16T06:32:18.780Z,7.13
2023-02-16T06:32:51.240Z,6.30
2023-02-16T06:33:26.064Z,6.43
2023-02-16T06:33:58.300Z,6.40
2023-02-16T06:34:33.152Z,6.85
2023-02-16T06:35:05.935Z,6.17
2023-02-16T06:35:38.166Z,6.57
2023-02-16T06:36:13.380Z,6.53
2023-02-16T06:36:45.639Z,6.18
2023-02-16T06:37:17.880Z,6.30
2023-02-16T06:37:52.699Z,6.20
2023-02-16T06:38:26.452Z,5.70
2023-02-16T06:38:58.782Z,6.07
2023-02-16T06:39:33.867Z,6.50
2023-02-16T06:40:10.047Z,8.70
2023-02-16T06:40:42.283Z,9.50
2023-02-16T06:41:31.396Z,9.67
2023-02-16T06:42:04.144Z,7.90
2023-02-16T06:42:39.156Z,7.23
2023-02-16T06:43:11.380Z,8.73
2023-02-16T06:43:46.210Z,8.00
2023-02-16T06:44:18.758Z,7.80
2023-02-16T06:44:51.005Z,7.77
2023-02-16T06:45:25.872Z,6.88
2023-02-16T06:46:00.735Z,7.60
2023-02-16T06:46:33.033Z,7.07
2023-02-16T06:47:07.993Z,7.63
2023-02-16T06:47:40.329Z,7.10
2023-02-16T06:48:12.568Z,7.43
2023-02-16T06:48:47.584Z,6.85
2023-02-16T06:49:20.991Z,7.15
2023-02-16T06:49:53.409Z,6.65
2023-02-16T06:50:28.319Z,7.25
2023-02-16T06:51:00.698Z,6.90
2023-02-16T06:51:35.741Z,7.53
2023-02-16T06:52:08.024Z,7.07
2023-02-16T06:52:40.395Z,6.90
2023-02-16T06:53:15.228Z,6.80
2023-02-16T06:53:47.691Z,7.05
2023-02-16T06:54:22.746Z,7.15
2023-02-16T06:54:54.988Z,7.00
2023-02-16T06:55:27.225Z,6.70
2023-02-16T06:56:02.046Z,6.85
2023-02-16T06:56:35.850Z,6.38
2023-02-16T06:57:09.692Z,6.50
2023-02-16T06:57:44.692Z,7.00
2023-02-16T06:58:16.992Z,6.70
2023-02-16T06:58:52.212Z,6.80
2023-02-16T06:59:24.528Z,7.47
2023-02-16T06:59:56.969Z,6.68
2023-02-16T07:00:32.537Z,7.10
2023-02-16T07:01:07.872Z,6.75
2023-02-16T07:01:44.943Z,7.00
2023-02-16T07:02:19.437Z,6.70
2023-02-16T07:02:51.744Z,6.97
2023-02-16T07:03:26.679Z,7.00
2023-02-16T07:03:59.036Z,6.30
2023-02-16T07:04:33.987Z,7.03
2023-02-16T07:05:06.381Z,6.67
2023-02-16T07:05:39.634Z,6.40
2023-02-16T07:06:14.472Z,7.10
2023-02-16T07:06:46.727Z,6.63
2023-02-16T07:07:21.585Z,6.03
2023-02-16T07:07:53.824Z,6.40
2023-02-16T07:08:28.639Z,6.40
2023-02-16T07:09:00.906Z,6.80
2023-02-16T07:09:33.229Z,6.93
2023-02-16T07:10:09.786Z,6.73
2023-02-16T07:10:49.730Z,6.80
2023-02-16T07:11:25.524Z,6.87
2023-02-16T07:11:58.473Z,6.30
2023-02-16T07:12:30.703Z,6.43
2023-02-16T07:13:05.542Z,6.67
2023-02-16T07:13:37.804Z,6.65
2023-02-16T07:14:10.345Z,7.77
2023-02-16T07:14:45.423Z,7.40
2023-02-16T07:15:17.868Z,6.77
2023-02-16T07:15:52.771Z,6.85
2023-02-16T07:16:27.705Z,7.93
2023-02-16T07:17:04.547Z,7.30
2023-02-16T07:17:36.981Z,6.60
2023-02-16T07:18:09.480Z,7.57
2023-02-16T07:18:44.415Z,6.77
2023-02-16T07:19:16.712Z,6.88
2023-02-16T07:19:51.547Z,7.45
2023-02-16T07:20:23.789Z,6.60
2023-02-16T07:20:56.091Z,7.37
2023-02-16T07:21:30.948Z,7.03
2023-02-16T07:22:03.331Z,6.90
2023-02-16T07:22:35.611Z,7.67
2023-02-16T07:23:10.447Z,7.13
2023-02-16T07:23:43.109Z,7.55
2023-02-16T07:24:15.334Z,7.43
2023-02-16T07:24:50.170Z,7.80
2023-02-16T07:25:22.584Z,8.30
2023-02-16T07:25:57.491Z,8.73
2023-02-16T07:26:29.775Z,9.48
2023-02-16T07:27:05.312Z,9.30
2023-02-16T07:27:37.557Z,10.90
2023-02-16T07:28:09.795Z,10.03
2023-02-16T07:28:44.625Z,9.53
2023-02-16T07:29:16.978Z,11.77
2023-02-16T07:29:49.234Z,12.00
2023-02-16T07:30:24.667Z,12.77
2023-02-16T07:30:57.055Z,13.23
2023-02-16T07:31:34.699Z,12.33
2023-02-16T07:32:07.084Z,11.93
2023-02-16T07:32:39.479Z,12.00
2023-02-16T07:33:14.364Z,10.80
2023-02-16T07:33:46.660Z,10.63
2023-02-16T07:34:22.161Z,10.70
2023-02-16T07:34:54.439Z,11.43
2023-02-16T07:35:26.688Z,11.93
2023-02-16T07:36:01.552Z,11.10
2023-02-16T07:36:34.182Z,13.73
2023-02-16T07:37:09.340Z,14.03
2023-02-16T07:37:41.637Z,14.07
2023-02-16T07:38:16.754Z,12.50
2023-02-16T07:38:49.056Z,11.80
2023-02-16T07:39:23.912Z,12.77
2023-02-16T07:39:56.349Z,11.37
2023-02-16T07:40:28.583Z,12.40
2023-02-16T07:41:04.787Z,11.13
2023-02-16T07:41:38.989Z,11.53
2023-02-16T07:42:15.970Z,11.70
2023-02-16T07:42:52.616Z,12.50
2023-02-16T07:43:24.897Z,11.57
2023-02-16T07:43:59.736Z,10.47
2023-02-16T07:44:31.969Z,10.47
2023-02-16T07:45:07.632Z,9.13
2023-02-16T07:45:39.897Z,9.60
2023-02-16T07:46:12.223Z,8.73
2023-02-16T07:46:49.740Z,8.63
2023-02-16T07:47:21.984Z,9.37
2023-02-16T07:47:56.845Z,9.37
2023-02-16T07:48:29.079Z,8.53
2023-02-16T07:49:01.587Z,8.83
2023-02-16T07:49:36.512Z,8.45
2023-02-16T07:50:09.278Z,9.13
2023-02-16T07:50:41.539Z,8.60
2023-02-16T07:51:16.378Z,8.88
2023-02-16T07:51:48.605Z,9.63
2023-02-16T07:52:25.955Z,9.43
2023-02-16T07:52:58.196Z,9.40
2023-02-16T07:53:30.527Z,9.63
2023-02-16T07:54:05.364Z,10.17
2023-02-16T07:54:38.095Z,9.55
2023-02-16T07:55:11.342Z,9.77
2023-02-16T07:55:47.354Z,9.43
2023-02-16T07:56:20.803Z,8.80
2023-02-16T07:56:55.663Z,9.73